createdAt,value
2023-05-14T00:01:32.034Z,101543.40
2023-05-14T00:03:59.865Z,101548.00
2023-05-14T00:06:27.701Z,101548.20
2023-05-14T00:08:55.697Z,101545.80
2023-05-14T00:11:24.136Z,101542.20
2023-05-14T00:13:52.077Z,101537.80
2023-05-14T00:16:19.862Z,101540.40
2023-05-14T00:18:47.647Z,101540.20
2023-05-14T00:21:15.407Z,101544.40
2023-05-14T00:23:43.186Z,101539.80
2023-05-14T00:26:10.910Z,101536.20
2023-05-14T00:28:39.508Z,101530.80
2023-05-14T00:31:07.384Z,101525.40
2023-05-14T00:33:35.244Z,101526.40
2023-05-14T00:36:04.171Z,101527.40
2023-05-14T00:38:32.135Z,101525.20
2023-05-14T00:40:59.928Z,101523.60
2023-05-14T00:43:27.874Z,101516.60
2023-05-14T00:45:56.118Z,101515.40
2023-05-14T00:48:25.853Z,101512.60
2023-05-14T00:50:53.926Z,101509.80
2023-05-14T00:53:22.164Z,101503.60
2023-05-14T00:55:51.028Z,101502.60
2023-05-14T00:58:19.666Z,101497.60
2023-05-14T01:00:48.002Z,101493.20
2023-05-14T01:03:16.074Z,101487.00
2023-05-14T01:06:09.921Z,101485.00
2023-05-14T01:08:56.847Z,101480.60
2023-05-14T01:11:27.639Z,101478.80
2023-05-14T01:14:12.718Z,101480.60
2023-05-14T01:16:40.828Z,101484.80
2023-05-14T01:19:35.677Z,101488.40
2023-05-14T01:22:03.739Z,101484.40
2023-05-14T01:24:31.777Z,101483.80
2023-05-14T01:27:13.420Z,101477.40
2023-05-14T01:29:49.717Z,101478.20
2023-05-14T01:32:20.723Z,101474.20
2023-05-14T01:34:51.309Z,101480.20
2023-05-14T01:37:19.962Z,101477.20
2023-05-14T01:39:50.567Z,101474.00
2023-05-14T01:42:18.565Z,101467.60
2023-05-14T01:44:46.386Z,101474.40
2023-05-14T01:47:14.185Z,101476.20
2023-05-14T01:49:41.948Z,101477.20
2023-05-14T01:52:10.898Z,101481.60
2023-05-14T01:54:38.893Z,101480.60
2023-05-14T01:57:06.630Z,101480.20
2023-05-14T01:59:34.342Z,101478.40
2023-05-14T02:02:02.154Z,101473.60
2023-05-14T02:04:30.262Z,101473.60
2023-05-14T02:06:58.402Z,101465.40
2023-05-14T02:09:26.257Z,101462.20
2023-05-14T02:11:54.052Z,101462.80
2023-05-14T02:14:21.869Z,101461.80
2023-05-14T02:16:51.375Z,101457.00
2023-05-14T02:19:19.493Z,101459.20
2023-05-14T02:21:48.242Z,101449.80
2023-05-14T02:24:16.317Z,101444.80
2023-05-14T02:26:44.150Z,101439.40
2023-05-14T02:29:11.913Z,101435.40
2023-05-14T02:31:39.781Z,101432.60
2023-05-14T02:34:07.691Z,101429.20
2023-05-14T02:36:35.650Z,101434.80
2023-05-14T02:39:04.897Z,101428.80
2023-05-14T02:41:32.809Z,101431.00
2023-05-14T02:44:00.574Z,101425.40
2023-05-14T02:46:28.335Z,101427.80
2023-05-14T02:48:56.491Z,101426.20
2023-05-14T02:51:24.602Z,101427.80
2023-05-14T02:53:52.498Z,101427.80
2023-05-14T02:56:21.170Z,101424.20
2023-05-14T02:58:48.937Z,101423.80
2023-05-14T03:01:18.820Z,101418.80
2023-05-14T03:03:47.174Z,101417.40
2023-05-14T03:06:15.101Z,101417.60
2023-05-14T03:08:42.869Z,101417.80
2023-05-14T03:11:10.624Z,101413.80
2023-05-14T03:13:38.439Z,101413.40
2023-05-14T03:16:06.744Z,101415.80
2023-05-14T03:18:36.432Z,101412.80
2023-05-14T03:21:04.450Z,101417.60
2023-05-14T03:23:35.125Z,101414.40
2023-05-14T03:26:03.812Z,101413.80
2023-05-14T03:28:31.692Z,101413.00
2023-05-14T03:31:01.268Z,101414.40
2023-05-14T03:33:29.310Z,101411.40
2023-05-14T03:35:57.104Z,101403.20
2023-05-14T03:38:24.873Z,101397.80
2023-05-14T03:40:52.733Z,101399.20
2023-05-14T03:43:20.486Z,101394.40
2023-05-14T03:45:52.606Z,101392.80
2023-05-14T03:48:20.976Z,101386.40
2023-05-14T03:50:48.790Z,101388.40
2023-05-14T03:53:16.815Z,101391.00
2023-05-14T03:55:46.575Z,101384.80
2023-05-14T03:58:14.587Z,101390.40
2023-05-14T04:00:43.673Z,101384.80
2023-05-14T04:03:12.048Z,101385.40
2023-05-14T04:05:39.896Z,101385.20
2023-05-14T04:08:07.810Z,101385.20
2023-05-14T04:10:35.587Z,101383.20
2023-05-14T04:13:03.401Z,101382.80
2023-05-14T04:15:35.682Z,101384.80
2023-05-14T04:18:03.782Z,101380.60
2023-05-14T04:20:31.828Z,101376.20
2023-05-14T04:22:59.630Z,101381.00
2023-05-14T04:25:27.531Z,101382.80
2023-05-14T04:27:55.281Z,101382.20
2023-05-14T04:30:23.332Z,101380.40
2023-05-14T04:32:51.650Z,101379.00
2023-05-14T04:35:23.370Z,101379.40
2023-05-14T04:37:52.695Z,101382.20
2023-05-14T04:40:20.560Z,101387.40
2023-05-14T04:42:48.394Z,101385.80
2023-05-14T04:45:16.837Z,101390.20
2023-05-14T04:47:46.715Z,101386.00
2023-05-14T04:50:14.839Z,101380.60
2023-05-14T04:52:42.957Z,101383.00
2023-05-14T04:55:10.755Z,101382.00
2023-05-14T04:57:38.502Z,101384.20
2023-05-14T05:00:09.478Z,101384.00
2023-05-14T05:02:37.396Z,101390.20
2023-05-14T05:05:05.760Z,101390.20
2023-05-14T05:07:33.542Z,101382.40
2023-05-14T05:10:01.492Z,101387.60
2023-05-14T05:12:30.255Z,101381.40
2023-05-14T05:14:58.060Z,101383.20
2023-05-14T05:17:26.107Z,101381.60
2023-05-14T05:19:54.091Z,101385.60
2023-05-14T05:22:22.036Z,101388.40
2023-05-14T05:24:50.237Z,101390.60
2023-05-14T05:27:18.240Z,101380.60
2023-05-14T05:29:46.228Z,101375.20
2023-05-14T05:32:14.206Z,101375.40
2023-05-14T05:34:42.039Z,101376.60
2023-05-14T05:37:12.856Z,101373.20
2023-05-14T05:39:40.869Z,101368.40
2023-05-14T05:42:08.907Z,101368.40
2023-05-14T05:44:36.622Z,101365.00
2023-05-14T05:47:05.383Z,101362.00
2023-05-14T05:49:33.286Z,101355.80
2023-05-14T05:52:01.114Z,101353.60
2023-05-14T05:54:28.900Z,101351.40
2023-05-14T05:56:56.883Z,101358.00
2023-05-14T05:59:26.193Z,101361.60
2023-05-14T06:01:54.028Z,101364.80
2023-05-14T06:04:21.954Z,101364.00
2023-05-14T06:06:49.879Z,101360.20
2023-05-14T06:09:17.817Z,101368.20
2023-05-14T06:11:45.573Z,101364.60
2023-05-14T06:14:13.427Z,101363.00
2023-05-14T06:16:41.355Z,101360.80
2023-05-14T06:19:10.109Z,101356.60
2023-05-14T06:21:38.202Z,101352.80
2023-05-14T06:24:06.745Z,101347.60
2023-05-14T06:26:34.553Z,101339.20
2023-05-14T06:29:02.475Z,101334.20
2023-05-14T06:31:30.398Z,101326.40
2023-05-14T06:33:58.242Z,101324.60
2023-05-14T06:36:26.024Z,101319.40
2023-05-14T06:38:53.869Z,101313.40
2023-05-14T06:41:21.648Z,101319.00
2023-05-14T06:43:49.525Z,101322.80
2023-05-14T06:46:17.337Z,101324.00
2023-05-14T06:48:45.114Z,101321.80
2023-05-14T06:51:13.456Z,101322.20
2023-05-14T06:53:41.437Z,101320.20
2023-05-14T06:56:09.244Z,101317.40
2023-05-14T06:58:37.214Z,101319.80
2023-05-14T07:01:05.348Z,101322.60
2023-05-14T07:03:33.196Z,101327.60
2023-05-14T07:06:01.030Z,101324.00
2023-05-14T07:08:28.770Z,101326.00
2023-05-14T07:10:57.420Z,101325.60
2023-05-14T07:13:28.833Z,101320.00
2023-05-14T07:16:00.672Z,101321.60
2023-05-14T07:18:28.816Z,101318.40
2023-05-14T07:20:57.797Z,101323.80
2023-05-14T07:23:25.570Z,101320.40
2023-05-14T07:25:53.805Z,101316.20
2023-05-14T07:28:21.640Z,101316.60
2023-05-14T07:30:49.876Z,101307.80
2023-05-14T07:33:17.733Z,101308.00
2023-05-14T07:35:45.692Z,101306.40
2023-05-14T07:38:13.573Z,101315.60
2023-05-14T07:40:41.428Z,101309.40
2023-05-14T07:43:10.788Z,101318.40
2023-05-14T07:45:39.322Z,101317.80
2023-05-14T07:48:07.222Z,101321.00
2023-05-14T07:50:35.135Z,101316.00
2023-05-14T07:53:03.040Z,101311.80
2023-05-14T07:55:31.515Z,101305.40
2023-05-14T07:57:59.482Z,101307.00
2023-05-14T08:00:27.730Z,101304.60
2023-05-14T08:02:55.733Z,101302.00
2023-05-14T08:05:23.645Z,101300.80
2023-05-14T08:07:51.408Z,101304.40
2023-05-14T08:10:19.193Z,101296.20
2023-05-14T08:12:46.972Z,101299.80
2023-05-14T08:15:14.721Z,101296.20
2023-05-14T08:17:42.973Z,101295.00
2023-05-14T08:20:12.062Z,101296.20
2023-05-14T08:22:40.019Z,101301.60
2023-05-14T08:25:08.300Z,101301.40
2023-05-14T08:27:37.061Z,101298.60
2023-05-14T08:30:06.723Z,101296.20
2023-05-14T08:32:34.527Z,101299.80
2023-05-14T08:35:02.605Z,101292.00
2023-05-14T08:37:30.592Z,101283.20
2023-05-14T08:39:58.400Z,101283.80
2023-05-14T08:42:28.621Z,101275.20
2023-05-14T08:45:02.838Z,101275.40
2023-05-14T08:47:31.652Z,101275.60
2023-05-14T08:50:06.382Z,101278.80
2023-05-14T08:52:35.289Z,101279.20
2023-05-14T08:55:05.682Z,101271.40
2023-05-14T08:57:34.898Z,101274.60
2023-05-14T09:00:08.561Z,101265.40
2023-05-14T09:02:36.921Z,101264.60
2023-05-14T09:05:07.316Z,101259.60
2023-05-14T09:07:36.316Z,101258.40
2023-05-14T09:10:05.486Z,101256.20
2023-05-14T09:12:33.284Z,101257.80
2023-05-14T09:15:01.061Z,101251.40
2023-05-14T09:17:29.099Z,101245.40
2023-05-14T09:19:57.001Z,101238.00
2023-05-14T09:22:25.003Z,101235.00
2023-05-14T09:25:12.311Z,101234.60
2023-05-14T09:27:40.479Z,101231.20
2023-05-14T09:30:13.849Z,101229.80
2023-05-14T09:32:44.536Z,101224.00
2023-05-14T09:35:21.508Z,101232.20
2023-05-14T09:37:52.687Z,101238.20
2023-05-14T09:40:24.404Z,101240.40
2023-05-14T09:42:52.880Z,101238.80
2023-05-14T09:45:20.868Z,101235.20
2023-05-14T09:47:49.054Z,101237.20
2023-05-14T09:50:17.001Z,101233.00
2023-05-14T09:52:44.883Z,101235.60
2023-05-14T09:55:13.812Z,101239.40
2023-05-14T09:57:42.124Z,101234.40
2023-05-14T10:00:12.694Z,101245.60
2023-05-14T10:02:43.558Z,101243.60
2023-05-14T10:05:13.357Z,101230.00
2023-05-14T10:07:47.864Z,101226.20
2023-05-14T10:10:19.600Z,101225.60
2023-05-14T10:12:58.957Z,101220.40
2023-05-14T10:16:10.805Z,101220.00
2023-05-14T10:18:45.891Z,101214.20
2023-05-14T10:21:17.203Z,101210.40
2023-05-14T10:23:46.350Z,101207.80
2023-05-14T10:26:14.813Z,101197.40
2023-05-14T10:28:43.621Z,101194.20
2023-05-14T10:31:12.698Z,101190.40
2023-05-14T10:33:51.138Z,101195.20
2023-05-14T10:36:22.234Z,101198.20
2023-05-14T10:38:57.232Z,101206.60
2023-05-14T10:41:25.811Z,101203.80
2023-05-14T10:43:53.643Z,101201.60
2023-05-14T10:46:21.629Z,101198.00
2023-05-14T10:48:49.900Z,101194.40
2023-05-14T10:51:20.868Z,101193.20
2023-05-14T10:53:49.176Z,101196.60
2023-05-14T10:56:16.993Z,101185.60
2023-05-14T10:58:46.064Z,101184.00
2023-05-14T11:01:14.339Z,101178.40
2023-05-14T11:03:46.142Z,101174.40
2023-05-14T11:06:16.445Z,101179.20
2023-05-14T11:08:46.543Z,101180.20
2023-05-14T11:11:15.142Z,101176.20
2023-05-14T11:13:44.817Z,101179.80
2023-05-14T11:16:22.624Z,101176.20
2023-05-14T11:19:03.474Z,101167.20
2023-05-14T11:21:32.871Z,101163.60
2023-05-14T11:24:01.277Z,101162.80
2023-05-14T11:26:29.460Z,101159.00
2023-05-14T11:28:57.399Z,101155.80
2023-05-14T11:31:25.689Z,101151.40
2023-05-14T11:33:54.302Z,101149.40
2023-05-14T11:36:22.212Z,101140.20
2023-05-14T11:38:51.502Z,101139.00
2023-05-14T11:41:21.532Z,101144.40
2023-05-14T11:43:49.801Z,101145.20
2023-05-14T11:46:18.731Z,101142.80
2023-05-14T11:48:46.921Z,101134.60
2023-05-14T11:51:14.779Z,101133.60
2023-05-14T11:53:42.691Z,101135.00
2023-05-14T11:56:11.153Z,101133.20
2023-05-14T11:58:38.965Z,101135.80
2023-05-14T12:01:07.146Z,101131.60
2023-05-14T12:03:35.592Z,101130.00
2023-05-14T12:06:09.982Z,101124.20
2023-05-14T12:08:37.816Z,101120.80
2023-05-14T12:11:05.737Z,101115.00
2023-05-14T12:13:33.581Z,101115.80
2023-05-14T12:16:03.130Z,101108.80
2023-05-14T12:18:32.504Z,101110.80
2023-05-14T12:21:05.958Z,101105.80
2023-05-14T12:23:34.197Z,101098.00
2023-05-14T12:26:06.195Z,101106.00
2023-05-14T12:28:38.807Z,101104.80
2023-05-14T12:31:06.704Z,101100.40
2023-05-14T12:33:34.610Z,101096.40
2023-05-14T12:38:34.280Z,101092.20
2023-05-14T12:41:02.150Z,101090.00
2023-05-14T12:43:32.230Z,101087.00
2023-05-14T12:46:00.182Z,101080.60
2023-05-14T12:48:27.962Z,101079.60
2023-05-14T12:50:55.896Z,101072.00
2023-05-14T12:53:23.620Z,101067.40
2023-05-14T12:55:51.493Z,101064.20
2023-05-14T12:58:19.320Z,101063.00
2023-05-14T13:00:47.157Z,101055.00
2023-05-14T13:03:15.316Z,101046.60
2023-05-14T13:05:43.348Z,101044.60
2023-05-14T13:08:11.195Z,101039.40
2023-05-14T13:10:39.051Z,101042.40
2023-05-14T13:13:06.874Z,101046.00
2023-05-14T13:15:36.821Z,101039.60
2023-05-14T13:18:05.085Z,101034.80
2023-05-14T13:20:34.046Z,101034.20
2023-05-14T13:23:01.868Z,101034.80
2023-05-14T13:25:29.627Z,101036.20
2023-05-14T13:27:57.549Z,101031.40
2023-05-14T13:30:25.679Z,101032.60
2023-05-14T13:32:53.525Z,101024.80
2023-05-14T13:35:21.705Z,101027.60
2023-05-14T13:37:49.642Z,101024.20
2023-05-14T13:40:17.805Z,101018.60
2023-05-14T13:42:45.626Z,101020.60
2023-05-14T13:45:13.617Z,101018.40
2023-05-14T13:47:41.451Z,101012.60
2023-05-14T13:50:09.666Z,101012.20
2023-05-14T13:52:39.036Z,101013.60
2023-05-14T13:55:08.251Z,101007.60
2023-05-14T13:57:36.195Z,101008.00
2023-05-14T14:00:05.410Z,101004.80
2023-05-14T14:02:34.172Z,101006.40
2023-05-14T14:05:02.283Z,100998.60
2023-05-14T14:07:30.422Z,100991.00
2023-05-14T14:09:58.333Z,100988.20
2023-05-14T14:12:26.779Z,100988.40
2023-05-14T14:14:54.774Z,100985.40
2023-05-14T14:17:22.664Z,100984.20
2023-05-14T14:19:50.558Z,100983.20
2023-05-14T14:22:18.558Z,100983.60
2023-05-14T14:24:46.319Z,100976.40
2023-05-14T14:27:14.082Z,100973.80
2023-05-14T14:29:41.970Z,100967.80
2023-05-14T14:32:09.914Z,100968.60
2023-05-14T14:34:37.777Z,100961.40
2023-05-14T14:37:06.259Z,100961.20
2023-05-14T14:39:34.315Z,100954.60
2023-05-14T14:42:02.108Z,100953.20
2023-05-14T14:44:29.874Z,100953.00
2023-05-14T14:46:57.645Z,100949.00
2023-05-14T14:49:26.064Z,100952.00
2023-05-14T14:51:53.964Z,100954.40
2023-05-14T14:54:21.715Z,100949.60
2023-05-14T14:56:52.409Z,100952.40
2023-05-14T14:59:20.327Z,100953.40
2023-05-14T15:01:48.246Z,100953.20
2023-05-14T15:04:16.233Z,100956.20
2023-05-14T15:06:44.001Z,100959.00
2023-05-14T15:09:11.764Z,100959.00
2023-05-14T15:11:40.358Z,100959.20
2023-05-14T15:14:08.269Z,100953.60
2023-05-14T15:16:36.086Z,100947.20
2023-05-14T15:19:04.105Z,100941.00
2023-05-14T15:21:32.489Z,100943.00
2023-05-14T15:24:00.473Z,100938.20
2023-05-14T15:26:28.324Z,100940.20
2023-05-14T15:28:57.937Z,100934.40
2023-05-14T15:31:26.038Z,100936.20
2023-05-14T15:33:56.171Z,100929.60
2023-05-14T15:36:24.320Z,100925.80
2023-05-14T15:38:52.126Z,100925.20
2023-05-14T15:41:20.288Z,100921.00
2023-05-14T15:43:48.212Z,100919.20
2023-05-14T15:47:27.549Z,100918.20
2023-05-14T15:49:55.319Z,100911.80
2023-05-14T15:52:23.337Z,100919.00
2023-05-14T15:54:51.526Z,100916.60
2023-05-14T15:57:20.118Z,100911.40
2023-05-14T15:59:48.016Z,100910.20
2023-05-14T16:02:16.184Z,100909.00
2023-05-14T16:04:48.847Z,100902.20
2023-05-14T16:07:16.746Z,100907.40
2023-05-14T16:09:44.691Z,100899.20
2023-05-14T16:12:12.523Z,100900.40
2023-05-14T16:14:42.102Z,100897.40
2023-05-14T16:17:10.145Z,100895.20
2023-05-14T16:19:39.659Z,100893.80
2023-05-14T16:22:07.745Z,100895.20
2023-05-14T16:24:36.232Z,100886.80
2023-05-14T16:27:04.351Z,100889.00
2023-05-14T16:29:32.284Z,100885.40
2023-05-14T16:32:00.409Z,100892.20
2023-05-14T16:34:28.452Z,100888.40
2023-05-14T16:36:56.407Z,100886.00
2023-05-14T16:39:26.046Z,100887.20
2023-05-14T16:41:53.942Z,100886.40
2023-05-14T16:44:24.363Z,100888.80
2023-05-14T16:46:52.184Z,100885.20
2023-05-14T16:49:22.409Z,100887.00
2023-05-14T16:51:50.449Z,100890.80
2023-05-14T16:54:18.236Z,100889.60
2023-05-14T16:56:48.307Z,100888.00
2023-05-14T16:59:17.080Z,100884.20
2023-05-14T17:01:44.922Z,100884.20
2023-05-14T17:04:12.829Z,100883.80
2023-05-14T17:06:40.676Z,100881.20
2023-05-14T17:09:08.463Z,100878.20
2023-05-14T17:11:36.528Z,100878.60
2023-05-14T17:14:03.296Z,100872.00
2023-05-14T17:16:31.284Z,100877.40
2023-05-14T17:18:58.097Z,100872.80
2023-05-14T17:21:26.394Z,100873.00
2023-05-14T17:23:54.148Z,100868.80
2023-05-14T17:26:22.718Z,100868.80
2023-05-14T17:28:50.530Z,100867.00
2023-05-14T17:31:18.441Z,100864.00
2023-05-14T17:33:46.715Z,100871.00
2023-05-14T17:36:14.720Z,100867.20
2023-05-14T17:38:42.623Z,100864.80
2023-05-14T17:41:10.675Z,100861.00
2023-05-14T17:43:38.506Z,100864.40
2023-05-14T17:46:07.221Z,100870.80
2023-05-14T17:48:35.014Z,100866.80
2023-05-14T17:51:02.821Z,100864.40
2023-05-14T17:53:30.632Z,100866.00
2023-05-14T17:55:58.454Z,100861.20
2023-05-14T17:58:26.401Z,100863.00
2023-05-14T18:00:54.246Z,100865.80
2023-05-14T18:03:22.251Z,100861.00
2023-05-14T18:05:51.211Z,100861.00
2023-05-14T18:08:19.057Z,100863.80
2023-05-14T18:10:46.925Z,100865.20
2023-05-14T18:13:14.921Z,100864.40
2023-05-14T18:15:43.059Z,100873.40
2023-05-14T18:18:10.977Z,100872.80
2023-05-14T18:20:38.868Z,100874.20
2023-05-14T18:23:06.727Z,100874.40
2023-05-14T18:25:34.643Z,100871.60
2023-05-14T18:28:02.435Z,100873.60
2023-05-14T18:30:30.272Z,100878.00
2023-05-14T18:32:59.636Z,100875.00
2023-05-14T18:35:28.069Z,100877.20
2023-05-14T18:37:56.101Z,100879.20
2023-05-14T18:40:24.060Z,100874.60
2023-05-14T18:42:51.948Z,100879.20
2023-05-14T18:45:20.316Z,100872.80
2023-05-14T18:47:48.139Z,100873.80
2023-05-14T18:50:16.209Z,100870.60
2023-05-14T18:52:44.097Z,100867.60
2023-05-14T18:55:11.898Z,100870.00
2023-05-14T18:57:39.761Z,100868.40
2023-05-14T19:00:10.292Z,100870.80
2023-05-14T19:02:38.183Z,100874.00
2023-05-14T19:05:07.475Z,100871.00
2023-05-14T19:07:37.309Z,100868.20
2023-05-14T19:10:06.333Z,100866.00
2023-05-14T19:12:34.530Z,100871.60
2023-05-14T19:15:03.597Z,100872.00
2023-05-14T19:17:33.426Z,100869.00
2023-05-14T19:20:02.550Z,100868.60
2023-05-14T19:22:31.245Z,100876.40
2023-05-14T19:25:00.289Z,100877.40
2023-05-14T19:27:29.526Z,100875.40
2023-05-14T19:29:58.450Z,100874.60
2023-05-14T19:32:27.502Z,100872.00
2023-05-14T19:34:56.785Z,100870.80
2023-05-14T19:37:26.704Z,100874.60
2023-05-14T19:39:55.814Z,100871.60
2023-05-14T19:42:25.915Z,100880.80
2023-05-14T19:44:56.350Z,100876.60
2023-05-14T19:47:25.666Z,100880.00
2023-05-14T19:49:54.796Z,100881.00
2023-05-14T19:52:23.903Z,100883.20
2023-05-14T19:54:52.979Z,100888.00
2023-05-14T19:57:23.153Z,100890.00
2023-05-14T19:59:52.221Z,100894.20
2023-05-14T20:02:22.085Z,100897.00
2023-05-14T20:04:51.156Z,100892.20
2023-05-14T20:07:20.167Z,100890.40
2023-05-14T20:09:47.951Z,100891.60
2023-05-14T20:12:16.756Z,100893.40
2023-05-14T20:14:44.856Z,100891.80
2023-05-14T20:17:12.787Z,100889.00
2023-05-14T20:19:41.294Z,100887.80
2023-05-14T20:22:09.225Z,100884.80
2023-05-14T20:24:37.174Z,100884.20
2023-05-14T20:27:05.944Z,100884.20
2023-05-14T20:29:33.864Z,100886.60
2023-05-14T20:32:01.672Z,100884.20
2023-05-14T20:34:29.457Z,100883.80
2023-05-14T20:36:58.120Z,100883.00
2023-05-14T20:39:25.962Z,100885.00
2023-05-14T20:41:53.841Z,100881.20
2023-05-14T20:44:21.667Z,100884.20
2023-05-14T20:46:49.753Z,100886.40
2023-05-14T20:49:17.664Z,100883.00
2023-05-14T20:51:45.515Z,100885.40
2023-05-14T20:54:13.652Z,100884.60
2023-05-14T20:56:41.562Z,100883.00
2023-05-14T20:59:10.538Z,100882.40
2023-05-14T21:01:39.255Z,100884.40
2023-05-14T21:04:07.769Z,100885.40
2023-05-14T21:06:35.866Z,100890.80
2023-05-14T21:09:03.762Z,100888.40
2023-05-14T21:11:32.735Z,100881.40
2023-05-14T21:14:00.921Z,100881.60
2023-05-14T21:16:28.834Z,100878.80
2023-05-14T21:18:57.362Z,100877.40
2023-05-14T21:21:25.985Z,100879.60
2023-05-14T21:23:53.807Z,100881.00
2023-05-14T21:26:22.283Z,100880.80
2023-05-14T21:28:50.253Z,100879.40
2023-05-14T21:31:18.087Z,100878.20
2023-05-14T21:33:45.990Z,100881.00
2023-05-14T21:36:13.908Z,100880.80
2023-05-14T21:38:42.064Z,100882.00
2023-05-14T21:41:09.887Z,100879.80
2023-05-14T21:43:37.693Z,100882.80
2023-05-14T21:46:05.548Z,100883.40
2023-05-14T21:48:33.660Z,100885.80
2023-05-14T21:51:02.040Z,100883.40
2023-05-14T21:53:29.917Z,100884.00
2023-05-14T21:55:57.730Z,100882.80
2023-05-14T21:58:26.692Z,100883.40
2023-05-14T22:00:54.508Z,100881.00
2023-05-14T22:03:22.450Z,100885.60
2023-05-14T22:05:50.406Z,100882.00
2023-05-14T22:08:18.250Z,100880.00
2023-05-14T22:10:47.487Z,100876.00
2023-05-14T22:13:15.492Z,100877.40
2023-05-14T22:15:43.388Z,100874.00
2023-05-14T22:18:12.792Z,100879.60
2023-05-14T22:20:41.271Z,100871.80
2023-05-14T22:23:09.123Z,100877.00
2023-05-14T22:25:37.059Z,100877.20
2023-05-14T22:28:05.119Z,100877.20
2023-05-14T22:30:32.938Z,100873.60
2023-05-14T22:33:00.827Z,100875.60
2023-05-14T22:35:28.681Z,100872.20
2023-05-14T22:37:56.416Z,100869.80
2023-05-14T22:40:24.505Z,100871.80
2023-05-14T22:42:52.308Z,100872.00
2023-05-14T22:45:20.084Z,100875.60
2023-05-14T22:47:47.890Z,100874.00
2023-05-14T22:50:15.789Z,100878.00
2023-05-14T22:52:43.656Z,100876.20
2023-05-14T22:55:11.534Z,100876.20
2023-05-14T22:57:39.733Z,100875.40
2023-05-14T23:00:09.032Z,100869.00
2023-05-14T23:02:36.831Z,100869.80
2023-05-14T23:05:06.055Z,100866.80
2023-05-14T23:07:34.013Z,100867.60
2023-05-14T23:10:02.003Z,100862.60
2023-05-14T23:12:29.766Z,100871.00
2023-05-14T23:14:59.122Z,100872.00
2023-05-14T23:17:27.406Z,100868.00
2023-05-14T23:19:55.460Z,100868.00
2023-05-14T23:22:23.351Z,100865.00
2023-05-14T23:24:51.139Z,100862.80
2023-05-14T23:27:19.451Z,100865.80
2023-05-14T23:29:47.295Z,100866.80
2023-05-14T23:32:15.103Z,100865.60
2023-05-14T23:34:42.966Z,100869.40
2023-05-14T23:37:10.976Z,100867.60
2023-05-14T23:39:38.714Z,100874.00
2023-05-14T23:42:06.701Z,100876.40
2023-05-14T23:44:34.536Z,100876.80
2023-05-14T23:47:02.936Z,100875.80
2023-05-14T23:49:30.911Z,100872.00
2023-05-14T23:51:58.705Z,100875.40
2023-05-14T23:54:26.564Z,100874.00
2023-05-14T23:56:54.922Z,100872.60
2023-05-14T23:59:22.825Z,100869.80
